Time;durP1;ratioP1;P1;durP2;ratioP2;P2;SDS_P1;SDS_P2;PMS_P1;PMS_P2;Temp;Humidity;BMP_temperature;BMP_pressure;BME280_temperature;BME280_humidity;BME280_pressure;Samples;Min_cycle;Max_cycle;Signal;HPM_P1;HPM_P2
2022/08/28 00:01:31;;;;;;;;;;;;;;;16.04;100.00;99698.84;5096695;28;20386;-77
2022/08/28 00:03:59;;;;;;;;;;;;;;;15.94;100.00;99699.97;5096719;28;19924;-78
2022/08/28 00:06:27;;;;;;;;;;;;;;;16.11;100.00;99695.81;5095457;28;20019;-78
2022/08/28 00:08:55;;;;;;;;;;;;;;;16.14;100.00;99697.78;5096755;28;19987;-78
2022/08/28 00:11:22;;;;;;;;;;;;;;;16.25;100.00;99698.25;5096639;28;20271;-77
2022/08/28 00:13:50;;;;;;;;;;;;;;;16.21;100.00;99697.56;5096389;28;19928;-77
2022/08/28 00:16:17;;;;;;;;;;;;;;;15.71;100.00;99690.94;5095232;28;19928;-78
2022/08/28 00:18:44;;;;;;;;;;;;;;;15.93;100.00;99694.75;5096302;28;19974;-78
2022/08/28 00:21:12;;;;;;;;;;;;;;;15.69;100.00;99693.41;5096396;28;19930;-77
2022/08/28 00:23:39;;;;;;;;;;;;;;;15.18;100.00;99700.72;5129158;27;20004;-77
2022/08/28 00:26:06;;;;;;;;;;;;;;;15.55;100.00;99700.22;5096158;28;19931;-77
2022/08/28 00:28:33;;;;;;;;;;;;;;;15.68;100.00;99703.88;5094977;28;19924;-77
2022/08/28 00:31:00;;;;;;;;;;;;;;;15.73;100.00;99689.25;5096141;28;19928;-77
2022/08/28 00:33:31;;;;;;;;;;;;;;;15.71;100.00;99697.34;5094978;28;20003;-77
2022/08/28 00:35:59;;;;;;;;;;;;;;;15.79;100.00;99693.13;5095136;28;20431;-77
2022/08/28 00:38:27;;;;;;;;;;;;;;;15.42;100.00;99692.91;5093856;28;19924;-77
2022/08/28 00:40:57;;;;;;;;;;;;;;;15.53;100.00;99697.03;5095969;28;19931;-77
2022/08/28 00:43:33;;;;;;;;;;;;;;;15.35;100.00;99696.66;5094428;28;19924;-77
2022/08/28 00:46:06;;;;;;;;;;;;;;;15.38;100.00;99695.81;5094693;28;19924;-77
2022/08/28 00:48:34;;;;;;;;;;;;;;;15.29;100.00;99692.00;5095818;28;19954;-77
2022/08/28 00:53:47;;;;;;;;;;;;;;;15.32;100.00;99689.09;5095729;28;20021;-77
2022/08/28 00:56:15;;;;;;;;;;;;;;;15.24;100.00;99690.50;5094381;28;19924;-77
2022/08/28 00:58:44;;;;;;;;;;;;;;;15.32;100.00;99686.28;5094490;28;19924;-78
2022/08/28 01:01:12;;;;;;;;;;;;;;;15.33;100.00;99687.06;5095604;28;19924;-77
2022/08/28 01:03:40;;;;;;;;;;;;;;;15.36;100.00;99686.19;5094240;28;19928;-78
2022/08/28 01:06:08;;;;;;;;;;;;;;;15.32;100.00;99686.28;5095494;28;19947;-77
2022/08/28 01:08:37;;;;;;;;;;;;;;;15.20;100.00;99683.38;5094196;28;19953;-78
2022/08/28 01:11:06;;;;;;;;;;;;;;;14.70;100.00;99682.97;5095406;28;19924;-77
2022/08/28 01:13:33;;;;;;;;;;;;;;;14.57;100.00;99691.28;5077433;28;19924;-78
2022/08/28 01:16:02;;;;;;;;;;;;;;;14.79;100.00;99691.59;5095206;28;20026;-78
2022/08/28 01:18:32;;;;;;;;;;;;;;;14.83;100.00;99681.09;5095060;28;19928;-78
2022/08/28 01:21:34;;;;;;;;;;;;;;;14.95;100.00;99689.59;5095365;28;19924;-78
2022/08/28 01:24:04;;;;;;;;;;;;;;;14.85;100.00;99681.41;5055935;28;20058;-78
2022/08/28 01:26:31;;;;;;;;;;;;;;;14.52;100.00;99683.38;5055809;28;19940;-77
2022/08/28 01:28:59;;;;;;;;;;;;;;;13.98;100.00;99688.50;5072421;28;20058;-77
2022/08/28 01:31:27;;;;;;;;;;;;;;;14.41;100.00;99688.44;5055989;28;19925;-77
2022/08/28 01:33:55;;;;;;;;;;;;;;;14.46;100.00;99690.75;5055755;28;19925;-78
2022/08/28 01:36:22;;;;;;;;;;;;;;;14.45;100.00;99683.50;5072553;28;20398;-78
2022/08/28 01:38:52;;;;;;;;;;;;;;;14.36;100.00;99684.13;5072064;28;19925;-78
2022/08/28 01:41:19;;;;;;;;;;;;;;;14.34;100.00;99683.75;5072263;28;20339;-78
2022/08/28 01:43:47;;;;;;;;;;;;;;;14.36;100.00;99686.13;5072009;28;19924;-78
2022/08/28 01:46:14;;;;;;;;;;;;;;;14.43;100.00;99686.75;5055483;28;20308;-78
2022/08/28 01:48:42;;;;;;;;;;;;;;;14.45;100.00;99684.31;5071999;28;19931;-78
2022/08/28 01:51:10;;;;;;;;;;;;;;;14.16;100.00;99682.53;5055364;28;20383;-78
2022/08/28 01:53:38;;;;;;;;;;;;;;;13.96;100.00;99674.09;5071865;28;19925;-78
2022/08/28 01:56:07;;;;;;;;;;;;;;;14.13;100.00;99678.53;5055283;28;19946;-77
2022/08/28 01:58:34;;;;;;;;;;;;;;;14.22;100.00;99683.59;5087988;28;19924;-78
2022/08/28 02:01:11;;;;;;;;;;;;;;;14.15;100.00;99686.53;5094464;28;20018;-77
2022/08/28 02:03:39;;;;;;;;;;;;;;;14.17;100.00;99686.91;5093085;28;19990;-78
2022/08/28 02:06:06;;;;;;;;;;;;;;;14.20;100.00;99688.84;5094431;28;19947;-77
2022/08/28 02:08:33;;;;;;;;;;;;;;;14.17;100.00;99684.09;5094153;28;19931;-78
2022/08/28 02:11:00;;;;;;;;;;;;;;;13.90;100.00;99691.88;5094295;28;19927;-78
2022/08/28 02:13:27;;;;;;;;;;;;;;;13.62;100.00;99684.78;5094410;28;19924;-78
2022/08/28 02:15:55;;;;;;;;;;;;;;;13.84;100.00;99682.38;5094138;28;19924;-78
2022/08/28 02:18:22;;;;;;;;;;;;;;;13.95;100.00;99671.72;5092946;28;20321;-78
2022/08/28 02:20:50;;;;;;;;;;;;;;;13.98;100.00;99676.47;5076321;28;19928;-78
2022/08/28 02:23:17;;;;;;;;;;;;;;;14.18;100.00;99674.44;5093960;28;19925;-78
2022/08/28 02:25:44;;;;;;;;;;;;;;;13.99;100.00;99672.44;5092938;28;19946;-78
2022/08/28 02:28:11;;;;;;;;;;;;;;;13.95;100.00;99680.16;5093969;28;20052;-78
2022/08/28 02:30:38;;;;;;;;;;;;;;;13.90;100.00;99670.19;5094022;28;19978;-77
2022/08/28 02:33:06;;;;;;;;;;;;;;;13.94;100.00;99676.53;5075863;28;20372;-78
2022/08/28 02:35:33;;;;;;;;;;;;;;;13.82;100.00;99679.19;5093946;28;20398;-77
2022/08/28 02:38:00;;;;;;;;;;;;;;;13.74;100.00;99677.72;5093694;28;19965;-78
2022/08/28 02:40:28;;;;;;;;;;;;;;;13.68;100.00;99673.81;5093876;28;19924;-77
2022/08/28 02:42:55;;;;;;;;;;;;;;;13.66;100.00;99676.28;5092541;28;20007;-78
2022/08/28 02:45:22;;;;;;;;;;;;;;;13.62;100.00;99675.53;5075896;28;20028;-77
2022/08/28 02:47:51;;;;;;;;;;;;;;;13.52;100.00;99680.16;5092931;28;19928;-77
2022/08/28 02:50:18;;;;;;;;;;;;;;;13.52;100.00;99671.72;5092646;28;19931;-77
2022/08/28 02:52:46;;;;;;;;;;;;;;;13.66;100.00;99673.47;5092465;28;20397;-78
2022/08/28 02:55:14;;;;;;;;;;;;;;;13.60;100.00;99678.78;5092661;28;19924;-77
2022/08/28 02:57:42;;;;;;;;;;;;;;;13.63;100.00;99679.97;5093917;28;19927;-78
2022/08/28 03:00:14;;;;;;;;;;;;;;;13.05;100.00;99686.16;5093627;28;19924;-77
2022/08/28 03:02:41;;;;;;;;;;;;;;;12.53;100.00;99694.94;5096828;28;19928;-77
2022/08/28 03:05:14;;;;;;;;;;;;;;;12.92;100.00;99691.53;5097994;28;19924;-77
2022/08/28 03:07:41;;;;;;;;;;;;;;;13.07;100.00;99689.34;5097812;28;20017;-77
2022/08/28 03:10:09;;;;;;;;;;;;;;;13.24;100.00;99688.28;5096647;28;19924;-78
2022/08/28 03:12:37;;;;;;;;;;;;;;;13.24;100.00;99689.06;5097873;28;19924;-78
2022/08/28 03:15:05;;;;;;;;;;;;;;;13.22;100.00;99690.72;5096353;28;19924;-78
2022/08/28 03:17:32;;;;;;;;;;;;;;;13.19;100.00;99697.19;5097628;28;19924;-77
2022/08/28 03:19:59;;;;;;;;;;;;;;;13.25;100.00;99696.28;5096289;28;19931;-78
2022/08/28 03:25:12;;;;;;;;;;;;;;;12.92;100.00;99687.97;5096619;28;19930;-77
2022/08/28 03:27:39;;;;;;;;;;;;;;;12.96;100.00;99688.69;5097251;28;19931;-78
2022/08/28 03:30:06;;;;;;;;;;;;;;;12.93;100.00;99695.16;5097596;28;19924;-77
2022/08/28 03:32:34;;;;;;;;;;;;;;;12.63;100.00;99691.19;5096469;28;20006;-77
2022/08/28 03:35:02;;;;;;;;;;;;;;;12.00;100.00;99694.81;5096043;28;19935;-78
2022/08/28 03:37:30;;;;;;;;;;;;;;;11.94;100.00;99696.50;5079358;28;20665;-77
2022/08/28 03:39:58;;;;;;;;;;;;;;;12.11;100.00;99689.88;5079257;28;19924;-78
2022/08/28 03:42:25;;;;;;;;;;;;;;;12.13;100.00;99692.28;5095879;28;19928;-78
2022/08/28 03:44:53;;;;;;;;;;;;;;;12.46;100.00;99686.59;5097315;28;19924;-77
2022/08/28 03:47:21;;;;;;;;;;;;;;;12.65;100.00;99690.75;5097214;28;20608;-78
2022/08/28 03:49:55;;;;;;;;;;;;;;;12.49;100.00;99685.00;5095645;28;20317;-77
2022/08/28 03:52:23;;;;;;;;;;;;;;;12.04;100.00;99700.38;5097089;28;20030;-77
2022/08/28 03:54:50;;;;;;;;;;;;;;;12.17;100.00;99688.22;5130029;27;19931;-77
2022/08/28 03:57:18;;;;;;;;;;;;;;;12.30;100.00;99688.44;5095572;28;19935;-77
2022/08/28 03:59:50;;;;;;;;;;;;;;;11.99;100.00;99686.84;5095797;28;20303;-77
2022/08/28 04:02:19;;;;;;;;;;;;;;;11.94;100.00;99695.69;5096872;28;19924;-77
2022/08/28 04:04:49;;;;;;;;;;;;;;;12.33;100.00;99691.19;5096691;28;20363;-77
2022/08/28 04:07:17;;;;;;;;;;;;;;;12.52;100.00;99693.34;5095842;28;20370;-77
2022/08/28 04:09:44;;;;;;;;;;;;;;;12.34;100.00;99681.56;5096878;28;19931;-77
2022/08/28 04:12:13;;;;;;;;;;;;;;;12.45;100.00;99679.41;5095242;28;19930;-77
2022/08/28 04:14:40;;;;;;;;;;;;;;;12.31;100.00;99678.84;5129377;27;19931;-77
2022/08/28 04:17:07;;;;;;;;;;;;;;;12.14;100.00;99677.84;5096721;28;20021;-77
2022/08/28 04:19:34;;;;;;;;;;;;;;;12.04;100.00;99677.97;5096519;28;20010;-77
2022/08/28 04:22:02;;;;;;;;;;;;;;;11.92;100.00;99676.50;5095428;28;20018;-77
2022/08/28 04:24:29;;;;;;;;;;;;;;;11.92;100.00;99678.53;5096705;28;19924;-78
2022/08/28 04:26:56;;;;;;;;;;;;;;;11.97;100.00;99673.25;5096280;28;20015;-77
2022/08/28 04:29:23;;;;;;;;;;;;;;;12.04;100.00;99673.16;5096389;28;19995;-77
2022/08/28 04:31:50;;;;;;;;;;;;;;;12.15;100.00;99682.22;5129594;27;20512;-78
2022/08/28 04:34:18;;;;;;;;;;;;;;;12.09;100.00;99678.31;5096225;28;19924;-77
2022/08/28 04:36:45;;;;;;;;;;;;;;;12.09;100.00;99683.91;5078365;28;19978;-77
2022/08/28 04:39:12;;;;;;;;;;;;;;;11.62;100.00;99690.44;5095528;28;19938;-77
2022/08/28 04:41:39;;;;;;;;;;;;;;;11.07;100.00;99686.13;5095610;28;19981;-77
2022/08/28 04:44:07;;;;;;;;;;;;;;;11.39;100.00;99690.22;5095431;28;20019;-77
2022/08/28 04:46:35;;;;;;;;;;;;;;;11.83;100.00;99695.03;5095953;28;19924;-77
2022/08/28 04:49:03;;;;;;;;;;;;;;;12.08;100.00;99689.94;5095129;28;19924;-78
2022/08/28 04:51:30;;;;;;;;;;;;;;;12.27;100.00;99690.06;5094148;28;20034;-78
2022/08/28 04:54:22;;;;;;;;;;;;;;;11.88;100.00;99698.16;5095555;28;19925;-77
2022/08/28 04:56:49;;;;;;;;;;;;;;;11.92;100.00;99693.31;5094906;28;20027;-77
2022/08/28 04:59:16;;;;;;;;;;;;;;;12.24;100.00;99699.31;5094649;28;20395;-77
2022/08/28 05:01:44;;;;;;;;;;;;;;;12.47;100.00;99702.22;5094650;28;19938;-77
2022/08/28 05:04:11;;;;;;;;;;;;;;;12.54;100.00;99699.31;5095834;28;20375;-77
2022/08/28 05:06:44;;;;;;;;;;;;;;;12.65;100.00;99701.97;5095523;28;19932;-78
2022/08/28 05:09:14;;;;;;;;;;;;;;;11.99;100.00;99710.03;5095580;28;20018;-78
2022/08/28 05:11:41;;;;;;;;;;;;;;;11.60;100.00;99720.03;5094630;28;19935;-77
2022/08/28 05:14:09;;;;;;;;;;;;;;;11.94;100.00;99715.28;5095409;28;19924;-77
2022/08/28 05:16:41;;;;;;;;;;;;;;;12.20;100.00;99715.41;5095704;28;19924;-78
2022/08/28 05:19:09;;;;;;;;;;;;;;;12.20;100.00;99714.59;5094327;28;19973;-77
2022/08/28 05:21:36;;;;;;;;;;;;;;;12.07;100.00;99719.16;5094140;28;19924;-78
2022/08/28 05:24:03;;;;;;;;;;;;;;;12.05;100.00;99713.97;5094736;28;20019;-77
2022/08/28 05:26:31;;;;;;;;;;;;;;;12.11;100.00;99722.69;5095189;28;20073;-77
2022/08/28 05:28:59;;;;;;;;;;;;;;;12.11;100.00;99723.50;5076996;28;19924;-77
2022/08/28 05:31:27;;;;;;;;;;;;;;;12.17;100.00;99732.22;5092408;28;19929;-77
2022/08/28 05:33:55;;;;;;;;;;;;;;;12.16;100.00;99725.81;5093878;28;19924;-77
2022/08/28 05:36:22;;;;;;;;;;;;;;;12.01;100.00;99723.63;5093897;28;19924;-77
2022/08/28 05:38:50;;;;;;;;;;;;;;;11.83;100.00;99729.41;5094902;28;19924;-78
2022/08/28 05:41:19;;;;;;;;;;;;;;;11.56;100.00;99725.66;5095033;28;19930;-77
2022/08/28 05:43:46;;;;;;;;;;;;;;;11.87;100.00;99734.97;5076628;28;19923;-78
2022/08/28 05:46:14;;;;;;;;;;;;;;;12.04;100.00;99726.38;5094636;28;19924;-77
2022/08/28 05:48:42;;;;;;;;;;;;;;;12.06;100.00;99721.16;5127862;27;19928;-77
2022/08/28 05:51:10;;;;;;;;;;;;;;;12.51;100.00;99731.00;5094879;28;19946;-77
2022/08/28 05:53:42;;;;;;;;;;;;;;;12.74;100.00;99728.28;5076598;28;19931;-77
2022/08/28 05:56:10;;;;;;;;;;;;;;;12.77;100.00;99731.47;5093297;28;19931;-77
2022/08/28 05:58:39;;;;;;;;;;;;;;;12.80;100.00;99727.81;5094500;28;19932;-77
2022/08/28 06:01:06;;;;;;;;;;;;;;;12.60;100.00;99739.69;5127350;27;19928;-77
2022/08/28 06:03:34;;;;;;;;;;;;;;;12.69;100.00;99733.56;5094493;28;20014;-77
2022/08/28 06:06:02;;;;;;;;;;;;;;;12.16;100.00;99731.44;5093046;28;20391;-77
2022/08/28 06:08:30;;;;;;;;;;;;;;;12.33;100.00;99740.84;5094518;28;19963;-77
2022/08/28 06:10:58;;;;;;;;;;;;;;;12.79;100.00;99749.44;5093324;28;19924;-77
2022/08/28 06:13:25;;;;;;;;;;;;;;;13.19;100.00;99742.84;5093464;28;19977;-78
2022/08/28 06:15:52;;;;;;;;;;;;;;;13.42;100.00;99742.09;5094358;28;19942;-78
2022/08/28 06:18:19;;;;;;;;;;;;;;;13.62;100.00;99743.75;5094274;28;19924;-78
2022/08/28 06:20:46;;;;;;;;;;;;;;;13.56;100.00;99750.25;5093007;28;19985;-77
2022/08/28 06:23:15;;;;;;;;;;;;;;;13.41;100.00;99749.72;5093028;28;19924;-77
2022/08/28 06:25:45;;;;;;;;;;;;;;;13.81;100.00;99756.25;5094203;28;19924;-79
2022/08/28 06:28:13;;;;;;;;;;;;;;;14.06;100.00;99757.38;5075493;28;19979;-76
2022/08/28 06:30:42;;;;;;;;;;;;;;;14.24;100.00;99754.25;5093851;28;19970;-77
2022/08/28 06:33:17;;;;;;;;;;;;;;;14.42;100.00;99757.47;5126851;27;20392;-77
2022/08/28 06:35:46;;;;;;;;;;;;;;;14.47;100.00;99759.81;5092029;28;19923;-77
2022/08/28 06:38:14;;;;;;;;;;;;;;;14.41;100.00;99755.91;5092664;28;20727;-77
2022/08/28 06:40:42;;;;;;;;;;;;;;;14.66;100.00;99750.53;5092498;28;19928;-77
2022/08/28 06:43:09;;;;;;;;;;;;;;;14.59;100.00;99758.34;5075599;28;19965;-77
2022/08/28 06:45:41;;;;;;;;;;;;;;;14.81;100.00;99763.09;5075664;28;20023;-76
2022/08/28 06:48:10;;;;;;;;;;;;;;;14.95;100.00;99757.13;5092762;28;19932;-77
2022/08/28 06:50:39;;;;;;;;;;;;;;;15.15;100.00;99760.69;5075688;28;19924;-77
2022/08/28 06:53:09;;;;;;;;;;;;;;;15.34;100.00;99759.81;5092559;28;19928;-77
2022/08/28 06:55:37;;;;;;;;;;;;;;;15.43;100.00;99765.69;5092684;28;19947;-78
2022/08/28 06:58:04;;;;;;;;;;;;;;;15.52;100.00;99763.06;5093493;28;19925;-77
2022/08/28 07:00:32;;;;;;;;;;;;;;;15.65;100.00;99761.09;5093686;28;19928;-77
2022/08/28 07:03:00;;;;;;;;;;;;;;;16.17;100.00;99763.75;5092448;28;19974;-77
2022/08/28 07:05:27;;;;;;;;;;;;;;;17.22;100.00;99760.63;5092626;28;19928;-81
2022/08/28 07:07:56;;;;;;;;;;;;;;;18.25;100.00;99753.09;5075980;28;20019;-78
2022/08/28 07:10:23;;;;;;;;;;;;;;;19.64;100.00;99750.94;5093773;28;19924;-80
2022/08/28 07:12:50;;;;;;;;;;;;;;;20.30;100.00;99737.97;5075786;28;19924;-80
2022/08/28 07:15:17;;;;;;;;;;;;;;;20.21;100.00;99740.78;5093785;28;19924;-79
2022/08/28 07:17:45;;;;;;;;;;;;;;;20.25;100.00;99749.97;5092529;28;19932;-80
2022/08/28 07:20:12;;;;;;;;;;;;;;;20.78;100.00;99742.66;5093604;28;19928;-79
2022/08/28 07:22:42;;;;;;;;;;;;;;;21.85;100.00;99752.03;5093584;28;19924;-79
2022/08/28 07:25:09;;;;;;;;;;;;;;;22.68;100.00;99740.31;5093449;28;19971;-80
2022/08/28 07:27:37;;;;;;;;;;;;;;;23.34;100.00;99735.00;5092120;28;19928;-77
2022/08/28 07:30:06;;;;;;;;;;;;;;;23.76;100.00;99734.59;5093335;28;19928;-78
2022/08/28 07:32:33;;;;;;;;;;;;;;;24.01;100.00;99728.22;5092215;28;19951;-79
2022/08/28 07:35:00;;;;;;;;;;;;;;;23.83;100.00;99732.09;5092265;28;19931;-79
2022/08/28 07:37:27;;;;;;;;;;;;;;;22.87;100.00;99738.84;5093377;28;20004;-79
2022/08/28 07:39:54;;;;;;;;;;;;;;;22.49;100.00;99744.56;5093207;28;20266;-79
2022/08/28 07:45:34;;;;;;;;;;;;;;;21.61;100.00;99748.38;5066910;28;20334;-78
2022/08/28 07:48:03;;;;;;;;;;;;;;;21.42;100.00;99752.56;5053962;28;19931;-77
2022/08/28 07:50:37;;;;;;;;;;;;;;;21.41;100.00;99753.81;5072007;28;20454;-78
2022/08/28 07:53:05;;;;;;;;;;;;;;;21.32;100.00;99754.66;5071174;28;20414;-77
2022/08/28 07:55:32;;;;;;;;;;;;;;;21.25;100.00;99759.88;5071465;28;19931;-77
2022/08/28 07:57:59;;;;;;;;;;;;;;;21.03;100.00;99770.69;5070486;28;20431;-78
2022/08/28 08:00:26;;;;;;;;;;;;;;;20.79;100.00;99766.94;5071922;28;20015;-77
2022/08/28 08:02:53;;;;;;;;;;;;;;;20.97;100.00;99773.41;5072953;28;20046;-77
2022/08/28 08:05:22;;;;;;;;;;;;;;;21.23;100.00;99770.97;5070830;28;20016;-77
2022/08/28 08:07:49;;;;;;;;;;;;;;;21.22;100.00;99780.72;5054295;28;19931;-77
2022/08/28 08:10:16;;;;;;;;;;;;;;;21.24;100.00;99772.53;5054404;28;20389;-77
2022/08/28 08:12:44;;;;;;;;;;;;;;;21.04;100.00;99777.94;5070682;28;19925;-77
2022/08/28 08:15:12;;;;;;;;;;;;;;;21.23;100.00;99785.16;5071942;28;19929;-77
2022/08/28 08:17:39;;;;;;;;;;;;;;;21.50;100.00;99782.22;5072660;28;20468;-76
2022/08/28 08:20:07;;;;;;;;;;;;;;;21.35;100.00;99781.34;5070634;28;19937;-77
2022/08/28 08:22:35;;;;;;;;;;;;;;;21.98;100.00;99777.38;5071991;28;19970;-77
2022/08/28 08:25:03;;;;;;;;;;;;;;;21.95;100.00;99784.84;5071124;28;19943;-77
2022/08/28 08:27:31;;;;;;;;;;;;;;;22.58;100.00;99778.69;5104555;28;19932;-77
2022/08/28 08:29:59;;;;;;;;;;;;;;;22.98;100.00;99778.94;5070626;28;19956;-77
2022/08/28 08:32:26;;;;;;;;;;;;;;;23.30;100.00;99784.94;5071093;28;20019;-77
2022/08/28 08:34:57;;;;;;;;;;;;;;;23.90;100.00;99776.56;5070551;28;19987;-78
2022/08/28 08:37:24;;;;;;;;;;;;;;;24.49;100.00;99772.94;5071776;28;19924;-76
2022/08/28 08:39:53;;;;;;;;;;;;;;;25.06;100.00;99770.22;5071969;28;20338;-76
2022/08/28 08:42:23;;;;;;;;;;;;;;;25.37;100.00;99766.63;5071512;28;20023;-78
2022/08/28 08:44:57;;;;;;;;;;;;;;;24.37;100.00;99771.25;5053876;28;19935;-78
2022/08/28 08:47:32;;;;;;;;;;;;;;;25.34;100.00;99767.63;5071246;28;19925;-80
2022/08/28 08:50:01;;;;;;;;;;;;;;;25.76;100.00;99768.47;5037256;28;20275;-78
2022/08/28 08:52:29;;;;;;;;;;;;;;;25.86;100.00;99763.31;5071683;28;19924;-79
2022/08/28 08:55:08;;;;;;;;;;;;;;;25.70;100.00;99756.22;5070956;28;19975;-78
2022/08/28 08:57:37;;;;;;;;;;;;;;;25.01;100.00;99768.09;5069326;28;20510;-79
2022/08/28 09:00:10;;;;;;;;;;;;;;;25.58;100.00;99757.41;5069033;28;20415;-76
2022/08/28 09:02:49;;;;;;;;;;;;;;;25.94;100.00;99759.47;5069713;28;20391;-76
2022/08/28 09:05:19;;;;;;;;;;;;;;;25.35;100.00;99761.41;5069773;28;19924;-76
2022/08/28 09:07:50;;;;;;;;;;;;;;;26.05;100.00;99759.56;5071634;28;20366;-76
2022/08/28 09:10:19;;;;;;;;;;;;;;;26.42;100.00;99753.72;5070254;28;20014;-76
2022/08/28 09:12:46;;;;;;;;;;;;;;;25.69;100.00;99759.59;5069239;28;19924;-77
2022/08/28 09:15:19;;;;;;;;;;;;;;;25.47;100.00;99765.94;5071157;28;20381;-77
2022/08/28 09:17:48;;;;;;;;;;;;;;;25.86;100.00;99764.09;5069723;28;20387;-75
2022/08/28 09:20:19;;;;;;;;;;;;;;;24.74;100.00;99766.53;5052176;28;20442;-76
2022/08/28 09:22:46;;;;;;;;;;;;;;;25.02;100.00;99766.81;5068731;28;20019;-77
2022/08/28 09:25:33;;;;;;;;;;;;;;;23.91;100.00;99766.72;5069387;28;19929;-76
2022/08/28 09:28:08;;;;;;;;;;;;;;;24.86;100.00;99767.41;5086193;28;20314;-76
2022/08/28 09:30:36;;;;;;;;;;;;;;;25.67;100.00;99760.09;5068867;28;20019;-76
2022/08/28 09:33:03;;;;;;;;;;;;;;;25.63;100.00;99750.16;5052900;28;19971;-76
2022/08/28 09:35:31;;;;;;;;;;;;;;;25.61;100.00;99759.25;5053422;28;19925;-75
2022/08/28 09:38:17;;;;;;;;;;;;;;;25.39;100.00;99756.22;5051895;28;20026;-76
2022/08/28 09:43:32;;;;;;;;;;;;;;;24.33;100.00;99758.47;5070234;28;20575;-77
2022/08/28 09:46:01;;;;;;;;;;;;;;;24.03;100.00;99759.91;5051223;28;20081;-78
2022/08/28 09:48:31;;;;;;;;;;;;;;;24.04;100.00;99762.25;5068431;28;19963;-82
2022/08/28 09:51:04;;;;;;;;;;;;;;;24.07;100.00;99752.69;5070818;28;19982;-78
2022/08/28 09:53:33;;;;;;;;;;;;;;;24.00;100.00;99766.63;5070111;28;19931;-80
2022/08/28 09:56:09;;;;;;;;;;;;;;;23.52;100.00;99763.31;5070179;28;19925;-81
2022/08/28 09:58:42;;;;;;;;;;;;;;;23.69;100.00;99761.47;5069930;28;19924;-79
2022/08/28 10:01:23;;;;;;;;;;;;;;;23.32;100.00;99766.09;5051779;28;19925;-79
2022/08/28 10:04:09;;;;;;;;;;;;;;;23.26;100.00;99767.25;5085124;28;20365;-77
2022/08/28 10:06:37;;;;;;;;;;;;;;;23.56;100.00;99772.44;5067637;28;19935;-77
2022/08/28 10:09:19;;;;;;;;;;;;;;;23.73;100.00;99769.81;5069485;28;20276;-77
2022/08/28 10:11:54;;;;;;;;;;;;;;;23.80;100.00;99760.84;5069460;28;19924;-77
2022/08/28 10:14:25;;;;;;;;;;;;;;;23.91;100.00;99769.56;5085292;28;20346;-77
2022/08/28 10:17:02;;;;;;;;;;;;;;;23.24;100.00;99770.59;5070171;28;19924;-75
2022/08/28 10:19:30;;;;;;;;;;;;;;;22.25;100.00;99775.16;5068671;28;19931;-75
2022/08/28 10:22:21;;;;;;;;;;;;;;;22.65;100.00;99771.84;5052828;28;20060;-74
2022/08/28 10:25:02;;;;;;;;;;;;;;;23.37;100.00;99778.84;5053992;28;19932;-75
2022/08/28 10:27:30;;;;;;;;;;;;;;;23.44;100.00;99767.84;5071876;28;20391;-75
2022/08/28 10:30:03;;;;;;;;;;;;;;;23.57;100.00;99764.66;5071766;28;20003;-75
2022/08/28 10:32:41;;;;;;;;;;;;;;;23.61;100.00;99762.38;5055097;28;19924;-75
2022/08/28 10:35:12;;;;;;;;;;;;;;;23.02;100.00;99770.97;5072797;28;19967;-75
2022/08/28 10:37:49;;;;;;;;;;;;;;;23.31;100.00;99766.59;5071777;28;19924;-74
2022/08/28 10:40:35;;;;;;;;;;;;;;;22.70;100.00;99765.47;5073400;28;19925;-75
2022/08/28 10:43:05;;;;;;;;;;;;;;;22.74;100.00;99775.41;5053088;28;20442;-75
2022/08/28 10:45:33;;;;;;;;;;;;;;;22.91;100.00;99765.09;5072045;28;19928;-75
2022/08/28 10:48:05;;;;;;;;;;;;;;;22.97;100.00;99763.13;5087641;28;19928;-75
2022/08/28 10:50:41;;;;;;;;;;;;;;;23.23;100.00;99766.16;5071929;28;20452;-75
2022/08/28 10:53:24;;;;;;;;;;;;;;;22.92;100.00;99769.50;5054902;28;19978;-75
2022/08/28 10:55:56;;;;;;;;;;;;;;;22.74;100.00;99771.75;5088644;28;19925;-75
2022/08/28 10:58:25;;;;;;;;;;;;;;;22.90;100.00;99760.66;5072832;28;20019;-75
2022/08/28 11:00:55;;;;;;;;;;;;;;;22.51;100.00;99764.84;5054627;28;20091;-75
2022/08/28 11:03:23;;;;;;;;;;;;;;;23.10;100.00;99755.06;5070972;28;19924;-75
2022/08/28 11:06:10;;;;;;;;;;;;;;;23.48;100.00;99762.69;5055923;28;20263;-75
2022/08/28 11:08:38;;;;;;;;;;;;;;;23.83;100.00;99762.69;5054787;28;19924;-75
2022/08/28 11:11:11;;;;;;;;;;;;;;;23.45;100.00;99768.59;5054615;28;20290;-75
2022/08/28 11:13:41;;;;;;;;;;;;;;;23.69;100.00;99769.25;5071004;28;19969;-75
2022/08/28 11:16:23;;;;;;;;;;;;;;;23.31;100.00;99763.72;5071163;28;19924;-75
2022/08/28 11:18:50;;;;;;;;;;;;;;;22.94;100.00;99758.41;5072948;28;19930;-75
2022/08/28 11:21:27;;;;;;;;;;;;;;;22.71;100.00;99764.97;5055328;28;19924;-75
2022/08/28 11:24:02;;;;;;;;;;;;;;;23.85;100.00;99769.50;5058968;28;19935;-75
2022/08/28 11:26:38;;;;;;;;;;;;;;;24.22;100.00;99750.56;5076244;28;19969;-76
2022/08/28 11:29:05;;;;;;;;;;;;;;;23.62;100.00;99746.84;5075549;28;19965;-76
2022/08/28 11:31:35;;;;;;;;;;;;;;;24.00;100.00;99760.91;5076656;28;20019;-76
2022/08/28 11:34:03;;;;;;;;;;;;;;;23.19;100.00;99764.78;5075170;28;20292;-76
2022/08/28 11:36:31;;;;;;;;;;;;;;;23.61;100.00;99759.53;5075239;28;20031;-76
2022/08/28 11:39:01;;;;;;;;;;;;;;;24.26;100.00;99756.84;5074489;28;19931;-76
2022/08/28 11:41:37;;;;;;;;;;;;;;;23.91;100.00;99753.25;5075338;28;19928;-75
2022/08/28 11:44:08;;;;;;;;;;;;;;;24.47;100.00;99751.91;5074211;28;19963;-75
2022/08/28 11:46:38;;;;;;;;;;;;;;;24.42;100.00;99747.69;5092067;28;19967;-76
2022/08/28 11:49:27;;;;;;;;;;;;;;;24.48;100.00;99756.31;5075160;28;19974;-76
2022/08/28 11:52:01;;;;;;;;;;;;;;;23.28;100.00;99759.00;5075477;28;19971;-76
2022/08/28 11:54:28;;;;;;;;;;;;;;;23.43;100.00;99765.47;5076334;28;19925;-76
2022/08/28 11:57:14;;;;;;;;;;;;;;;23.65;100.00;99754.41;5074785;28;19932;-76
2022/08/28 11:59:42;;;;;;;;;;;;;;;24.70;100.00;99753.75;5075029;28;20257;-76
2022/08/28 12:02:27;;;;;;;;;;;;;;;24.53;100.00;99744.97;5075767;28;19924;-76
2022/08/28 12:04:55;;;;;;;;;;;;;;;24.79;100.00;99747.88;5076268;28;20027;-77
2022/08/28 12:07:31;;;;;;;;;;;;;;;24.42;100.00;99741.19;5073551;28;20586;-76
2022/08/28 12:09:58;;;;;;;;;;;;;;;23.52;100.00;99751.91;5072988;28;19931;-76
2022/08/28 12:12:44;;;;;;;;;;;;;;;24.09;100.00;99752.19;5073801;28;19931;-77
2022/08/28 12:15:40;;;;;;;;;;;;;;;24.54;100.00;99734.31;5074716;28;20434;-76
2022/08/28 12:18:10;;;;;;;;;;;;;;;24.84;100.00;99741.41;5066984;28;19924;-76
2022/08/28 12:20:49;;;;;;;;;;;;;;;24.94;100.00;99733.44;5058245;28;19931;-76
2022/08/28 12:23:22;;;;;;;;;;;;;;;24.29;100.00;99732.22;5075734;28;19932;-76
2022/08/28 12:25:57;;;;;;;;;;;;;;;24.94;100.00;99728.53;5075836;28;20425;-78
2022/08/28 12:28:30;;;;;;;;;;;;;;;24.32;100.00;99734.06;5075947;28;20021;-76
2022/08/28 12:31:03;;;;;;;;;;;;;;;23.79;100.00;99734.41;5074324;28;20326;-76
2022/08/28 12:33:35;;;;;;;;;;;;;;;24.50;100.00;99742.31;5074385;28;19960;-76
2022/08/28 12:36:03;;;;;;;;;;;;;;;25.05;100.00;99722.13;5091549;28;20387;-76
2022/08/28 12:38:31;;;;;;;;;;;;;;;24.09;100.00;99733.00;5073686;28;19924;-77
2022/08/28 12:41:00;;;;;;;;;;;;;;;24.22;100.00;99724.84;5074558;28;20023;-75
2022/08/28 12:43:34;;;;;;;;;;;;;;;25.10;100.00;99727.88;5075484;28;19924;-76
2022/08/28 12:46:02;;;;;;;;;;;;;;;25.37;100.00;99721.63;5074169;28;19928;-76
2022/08/28 12:48:31;;;;;;;;;;;;;;;25.86;100.00;99718.31;5057760;28;19966;-75
2022/08/28 12:51:12;;;;;;;;;;;;;;;26.02;100.00;99726.22;5075710;28;19924;-75
2022/08/28 12:53:41;;;;;;;;;;;;;;;25.78;100.00;99717.22;5054696;28;20342;-75
2022/08/28 12:56:09;;;;;;;;;;;;;;;25.79;100.00;99724.53;5070636;28;19932;-75
2022/08/28 12:58:38;;;;;;;;;;;;;;;25.56;100.00;99722.81;5070941;28;19956;-77
2022/08/28 13:01:11;;;;;;;;;;;;;;;24.72;100.00;99722.56;5068603;28;19973;-78